Terminal Aerodrome Forecast
Issued by NWS

Home | Current Version | Previous Version | Text Only | Print | Product List | Glossary On
Versions: 1 2 3 4 5 6 7 8 9 10 11 12 13 14 15
000
FTAK31 PAJN 212340
TAFASI
TAF
PASI 212340Z 2200/2224 10010KT P6SM VCSH SCT025 OVC050
      TEMPO 2200/2203 10012G18KT -RA
     FM220300 12010KT P6SM -RA SCT025 OVC050
     FM220700 12006KT P6SM VCSH OVC050
     FM221400 14007KT P6SM -RA SCT015 OVC040
     FM221900 20006KT P6SM -RA BKN020 OVC040=

USA.gov is the U.S. government's official web portal to all federal, state and local government web resources and services.